Aérodrome :
LOGIN :

S'inscrire | Disclaimer

   EN    FR    IT 

 










Légende :    VFR   VFR Marginal   IFR   IFR Intensif   IFR Très Intensif
Visi : 
Plafond : 
>= 8 km
>= 3000ft
5 à 8 km
1000 à 3000 ft
1500m à 5 km
500 à 1000 ft
800 à 1500m
200 à 500 ft
< 800m
< 200 ft
Symboles :   Orages  Brouillard  Fortes neiges  Fortes précipitations  Vent > 20 kt
SIGMETs :   Divers  Orages  Givrage  Turbulence  Onde Orograph.  Cendres Volcan.






- Altitude de l'aérodrome : 195 ft


LFMY - Salon de Provence

DERNIER METAR :
  • 202200Z AUTO 14010KT 090V160 6000 RA SCT026/// BKN034/// BKN044/// ///TCU 12/09 Q1009

METARs EXPIRÉS :
  • 202130Z AUTO 13016G27KT 100V160 9999 RA FEW034/// BKN043/// BKN056/// ///TCU 13/08 Q1009
  • 202100Z AUTO 12014KT 090V160 9999 SCT036 BKN045 OVC052 13/07 Q1010
  • 202030Z AUTO 12011KT 090V160 9999 BKN043 BKN054 BKN064 12/06 Q1010
  • 202000Z AUTO 11015KT 9999 FEW039 SCT047 BKN060 12/06 Q1010
  • 201930Z AUTO 12013KT 090V150 9999 BKN041 BKN049 OVC060 12/06 Q1011

TAF TAF LFMY
Valide du 20 à 15h jusqu'au 21 à 15h UTC


201400Z 2015/2115 14015G25KT 9999 BKN030 OVC050 TX15/2112Z TN09/2106Z
TEMPO 2021/2106 RA BKN014 SCT025TCU



MET'MAP, la Météo Aéronautique d'un coup d'oeil ! - Copyright ORBIFLY Décembre 2007 - Disclaimer

ORBIFLY MET'MAP TEAM :

Programmation & Développement : Alexandra Zaïnal
Sur une idée originale de : Baudouin d'Aumeries
Assistance à la programmation : Marc-Olivier Méhu
Soutien technique & logistique : Manuel Goepfert

Contact : metmap@orbifly.com




SOURCES & CREDITS :

   NOAA